sensor_id;sensor_type;location;lat;lon;timestamp;temperature;humidity
12769;DHT22;6448;48.916;8.990;2023-05-27T00:00:15;22.50;38.90
12769;DHT22;6448;48.916;8.990;2023-05-27T00:01:18;22.50;38.90
12769;DHT22;6448;48.916;8.990;2023-05-27T00:02:18;22.50;38.90
12769;DHT22;6448;48.916;8.990;2023-05-27T00:03:20;22.50;39.00
12769;DHT22;6448;48.916;8.990;2023-05-27T00:04:21;22.40;39.00
12769;DHT22;6448;48.916;8.990;2023-05-27T00:05:24;22.40;39.00
12769;DHT22;6448;48.916;8.990;2023-05-27T00:06:24;22.40;39.10
12769;DHT22;6448;48.916;8.990;2023-05-27T00:07:26;22.40;39.10
12769;DHT22;6448;48.916;8.990;2023-05-27T00:08:28;22.50;39.10
12769;DHT22;6448;48.916;8.990;2023-05-27T00:09:30;22.40;39.10
12769;DHT22;6448;48.916;8.990;2023-05-27T00:10:30;22.40;39.10
12769;DHT22;6448;48.916;8.990;2023-05-27T00:11:32;22.30;39.10
12769;DHT22;6448;48.916;8.990;2023-05-27T00:12:33;22.30;39.20
12769;DHT22;6448;48.916;8.990;2023-05-27T00:13:34;22.30;39.30
12769;DHT22;6448;48.916;8.990;2023-05-27T00:14:35;22.30;39.30
12769;DHT22;6448;48.916;8.990;2023-05-27T00:15:41;22.30;39.30
12769;DHT22;6448;48.916;8.990;2023-05-27T00:16:41;22.30;39.30
12769;DHT22;6448;48.916;8.990;2023-05-27T00:17:43;22.30;39.40
12769;DHT22;6448;48.916;8.990;2023-05-27T00:18:44;22.30;39.30
12769;DHT22;6448;48.916;8.990;2023-05-27T00:19:46;22.20;39.30
12769;DHT22;6448;48.916;8.990;2023-05-27T00:20:49;22.30;39.40
12769;DHT22;6448;48.916;8.990;2023-05-27T00:21:51;22.20;39.40
12769;DHT22;6448;48.916;8.990;2023-05-27T00:22:52;22.20;39.30
12769;DHT22;6448;48.916;8.990;2023-05-27T00:23:55;22.20;39.30
12769;DHT22;6448;48.916;8.990;2023-05-27T00:24:58;22.20;39.30
12769;DHT22;6448;48.916;8.990;2023-05-27T00:25:59;22.10;39.20
12769;DHT22;6448;48.916;8.990;2023-05-27T00:27:00;22.10;39.30
12769;DHT22;6448;48.916;8.990;2023-05-27T00:28:03;22.10;39.30
12769;DHT22;6448;48.916;8.990;2023-05-27T00:29:04;22.10;39.30
12769;DHT22;6448;48.916;8.990;2023-05-27T00:30:07;22.10;39.40
12769;DHT22;6448;48.916;8.990;2023-05-27T00:31:08;22.00;39.40
12769;DHT22;6448;48.916;8.990;2023-05-27T00:32:10;22.10;39.40
12769;DHT22;6448;48.916;8.990;2023-05-27T00:33:10;22.10;39.50
12769;DHT22;6448;48.916;8.990;2023-05-27T00:34:12;22.00;39.50
12769;DHT22;6448;48.916;8.990;2023-05-27T00:35:13;22.00;39.50
12769;DHT22;6448;48.916;8.990;2023-05-27T00:36:16;22.00;39.60
12769;DHT22;6448;48.916;8.990;2023-05-27T00:37:17;22.00;39.60
12769;DHT22;6448;48.916;8.990;2023-05-27T00:38:19;22.00;39.70
12769;DHT22;6448;48.916;8.990;2023-05-27T00:39:20;22.00;39.70
12769;DHT22;6448;48.916;8.990;2023-05-27T00:40:23;21.90;39.70
12769;DHT22;6448;48.916;8.990;2023-05-27T00:41:25;21.90;39.70
12769;DHT22;6448;48.916;8.990;2023-05-27T00:42:27;21.90;39.80
12769;DHT22;6448;48.916;8.990;2023-05-27T00:43:29;21.90;39.90
12769;DHT22;6448;48.916;8.990;2023-05-27T00:44:32;21.80;39.80
12769;DHT22;6448;48.916;8.990;2023-05-27T00:45:33;21.80;39.80
12769;DHT22;6448;48.916;8.990;2023-05-27T00:46:35;21.80;39.80
12769;DHT22;6448;48.916;8.990;2023-05-27T00:47:36;21.80;39.80
12769;DHT22;6448;48.916;8.990;2023-05-27T00:48:38;21.80;39.90
12769;DHT22;6448;48.916;8.990;2023-05-27T00:49:38;21.80;39.90
12769;DHT22;6448;48.916;8.990;2023-05-27T00:50:40;21.70;39.90
12769;DHT22;6448;48.916;8.990;2023-05-27T00:51:42;21.80;40.00
12769;DHT22;6448;48.916;8.990;2023-05-27T00:52:44;21.70;40.00
12769;DHT22;6448;48.916;8.990;2023-05-27T00:53:46;21.70;40.10
12769;DHT22;6448;48.916;8.990;2023-05-27T00:54:48;21.80;40.10
12769;DHT22;6448;48.916;8.990;2023-05-27T00:55:50;21.70;40.10
12769;DHT22;6448;48.916;8.990;2023-05-27T00:56:54;21.70;40.10
12769;DHT22;6448;48.916;8.990;2023-05-27T00:57:55;21.70;40.10
12769;DHT22;6448;48.916;8.990;2023-05-27T00:58:57;21.60;40.10
12769;DHT22;6448;48.916;8.990;2023-05-27T00:59:58;21.60;40.20
12769;DHT22;6448;48.916;8.990;2023-05-27T01:01:00;21.70;40.20
12769;DHT22;6448;48.916;8.990;2023-05-27T01:02:01;21.60;40.20
12769;DHT22;6448;48.916;8.990;2023-05-27T01:03:03;21.60;40.20
12769;DHT22;6448;48.916;8.990;2023-05-27T01:04:04;21.60;40.30
12769;DHT22;6448;48.916;8.990;2023-05-27T01:05:07;21.60;40.30
12769;DHT22;6448;48.916;8.990;2023-05-27T01:06:15;21.60;40.30
12769;DHT22;6448;48.916;8.990;2023-05-27T01:07:26;21.60;40.40
12769;DHT22;6448;48.916;8.990;2023-05-27T01:08:37;21.60;40.40
12769;DHT22;6448;48.916;8.990;2023-05-27T01:09:44;21.50;40.40
12769;DHT22;6448;48.916;8.990;2023-05-27T01:10:49;21.40;40.40
12769;DHT22;6448;48.916;8.990;2023-05-27T01:11:55;21.50;40.40
12769;DHT22;6448;48.916;8.990;2023-05-27T01:13:01;21.60;40.40
12769;DHT22;6448;48.916;8.990;2023-05-27T01:14:06;21.50;40.40
12769;DHT22;6448;48.916;8.990;2023-05-27T01:15:09;21.50;40.40
12769;DHT22;6448;48.916;8.990;2023-05-27T01:16:13;21.50;40.40
12769;DHT22;6448;48.916;8.990;2023-05-27T01:17:17;21.50;40.40
12769;DHT22;6448;48.916;8.990;2023-05-27T01:18:19;21.50;40.40
12769;DHT22;6448;48.916;8.990;2023-05-27T01:19:28;21.40;40.30
12769;DHT22;6448;48.916;8.990;2023-05-27T01:20:32;21.40;40.30
12769;DHT22;6448;48.916;8.990;2023-05-27T01:21:35;21.40;40.30
12769;DHT22;6448;48.916;8.990;2023-05-27T01:22:42;21.50;40.50
12769;DHT22;6448;48.916;8.990;2023-05-27T01:23:46;21.40;40.40
12769;DHT22;6448;48.916;8.990;2023-05-27T01:24:49;21.40;40.40
12769;DHT22;6448;48.916;8.990;2023-05-27T01:25:51;21.40;40.40
12769;DHT22;6448;48.916;8.990;2023-05-27T01:26:52;21.40;40.50
12769;DHT22;6448;48.916;8.990;2023-05-27T01:27:53;21.40;40.50
12769;DHT22;6448;48.916;8.990;2023-05-27T01:28:56;21.40;40.50
12769;DHT22;6448;48.916;8.990;2023-05-27T01:29:58;21.30;40.50
12769;DHT22;6448;48.916;8.990;2023-05-27T01:31:18;21.30;40.50
12769;DHT22;6448;48.916;8.990;2023-05-27T01:32:26;21.30;40.60
12769;DHT22;6448;48.916;8.990;2023-05-27T01:33:32;21.30;40.60
12769;DHT22;6448;48.916;8.990;2023-05-27T01:34:41;21.30;40.60
12769;DHT22;6448;48.916;8.990;2023-05-27T01:35:51;21.20;40.70
12769;DHT22;6448;48.916;8.990;2023-05-27T01:36:58;21.20;40.70
12769;DHT22;6448;48.916;8.990;2023-05-27T01:38:07;21.20;40.70
12769;DHT22;6448;48.916;8.990;2023-05-27T01:39:12;21.20;40.70
12769;DHT22;6448;48.916;8.990;2023-05-27T01:40:13;21.20;40.70
12769;DHT22;6448;48.916;8.990;2023-05-27T01:41:16;21.20;40.70
12769;DHT22;6448;48.916;8.990;2023-05-27T01:42:18;21.20;40.70
12769;DHT22;6448;48.916;8.990;2023-05-27T01:43:21;21.10;40.70
12769;DHT22;6448;48.916;8.990;2023-05-27T01:44:22;21.10;40.80
12769;DHT22;6448;48.916;8.990;2023-05-27T01:45:24;21.10;40.80
12769;DHT22;6448;48.916;8.990;2023-05-27T01:46:26;21.10;40.80
12769;DHT22;6448;48.916;8.990;2023-05-27T01:47:28;21.10;40.90
12769;DHT22;6448;48.916;8.990;2023-05-27T01:48:29;21.10;40.90
12769;DHT22;6448;48.916;8.990;2023-05-27T01:49:31;21.10;40.90
12769;DHT22;6448;48.916;8.990;2023-05-27T01:50:32;21.00;40.80
12769;DHT22;6448;48.916;8.990;2023-05-27T01:51:33;21.00;40.90
12769;DHT22;6448;48.916;8.990;2023-05-27T01:52:34;21.00;40.90
12769;DHT22;6448;48.916;8.990;2023-05-27T01:53:38;21.00;40.90
12769;DHT22;6448;48.916;8.990;2023-05-27T01:54:38;21.00;40.90
12769;DHT22;6448;48.916;8.990;2023-05-27T01:55:42;21.00;41.00
12769;DHT22;6448;48.916;8.990;2023-05-27T01:56:43;21.00;41.00
12769;DHT22;6448;48.916;8.990;2023-05-27T01:57:45;21.00;41.00
12769;DHT22;6448;48.916;8.990;2023-05-27T01:58:46;21.00;41.00
12769;DHT22;6448;48.916;8.990;2023-05-27T01:59:47;20.90;41.00
12769;DHT22;6448;48.916;8.990;2023-05-27T02:00:48;20.90;41.00
12769;DHT22;6448;48.916;8.990;2023-05-27T02:01:50;20.90;41.00
12769;DHT22;6448;48.916;8.990;2023-05-27T02:02:52;20.90;41.00
12769;DHT22;6448;48.916;8.990;2023-05-27T02:03:54;21.00;41.20
12769;DHT22;6448;48.916;8.990;2023-05-27T02:04:54;20.90;41.20
12769;DHT22;6448;48.916;8.990;2023-05-27T02:05:56;20.90;41.20
12769;DHT22;6448;48.916;8.990;2023-05-27T02:06:57;20.90;41.20
12769;DHT22;6448;48.916;8.990;2023-05-27T02:07:59;20.90;41.30
12769;DHT22;6448;48.916;8.990;2023-05-27T02:09:02;20.80;41.20
12769;DHT22;6448;48.916;8.990;2023-05-27T02:10:04;20.80;41.30
12769;DHT22;6448;48.916;8.990;2023-05-27T02:11:05;20.80;41.30
12769;DHT22;6448;48.916;8.990;2023-05-27T02:12:07;20.80;41.30
12769;DHT22;6448;48.916;8.990;2023-05-27T02:13:08;20.80;41.30
12769;DHT22;6448;48.916;8.990;2023-05-27T02:14:10;20.80;41.30
12769;DHT22;6448;48.916;8.990;2023-05-27T02:15:12;20.80;41.30
12769;DHT22;6448;48.916;8.990;2023-05-27T02:16:13;20.70;41.30
12769;DHT22;6448;48.916;8.990;2023-05-27T02:17:15;20.70;41.30
12769;DHT22;6448;48.916;8.990;2023-05-27T02:18:17;20.70;41.30
12769;DHT22;6448;48.916;8.990;2023-05-27T02:19:21;20.70;41.30
12769;DHT22;6448;48.916;8.990;2023-05-27T02:20:23;20.70;42.00
12769;DHT22;6448;48.916;8.990;2023-05-27T02:21:23;20.70;41.30
12769;DHT22;6448;48.916;8.990;2023-05-27T02:22:25;20.70;41.40
12769;DHT22;6448;48.916;8.990;2023-05-27T02:23:26;20.70;41.40
12769;DHT22;6448;48.916;8.990;2023-05-27T02:24:29;20.70;41.40
12769;DHT22;6448;48.916;8.990;2023-05-27T02:25:30;20.70;41.40
12769;DHT22;6448;48.916;8.990;2023-05-27T02:26:31;20.60;41.40
12769;DHT22;6448;48.916;8.990;2023-05-27T02:27:36;20.60;41.40
12769;DHT22;6448;48.916;8.990;2023-05-27T02:28:38;20.60;41.40
12769;DHT22;6448;48.916;8.990;2023-05-27T02:29:39;20.60;41.40
12769;DHT22;6448;48.916;8.990;2023-05-27T02:30:41;20.60;41.50
12769;DHT22;6448;48.916;8.990;2023-05-27T02:31:42;20.60;41.50
12769;DHT22;6448;48.916;8.990;2023-05-27T02:32:43;20.60;41.50
12769;DHT22;6448;48.916;8.990;2023-05-27T02:33:44;20.60;41.60
12769;DHT22;6448;48.916;8.990;2023-05-27T02:34:47;20.60;41.60
12769;DHT22;6448;48.916;8.990;2023-05-27T02:35:48;20.60;41.60
12769;DHT22;6448;48.916;8.990;2023-05-27T02:36:50;20.60;41.60
12769;DHT22;6448;48.916;8.990;2023-05-27T02:37:51;20.50;41.60
12769;DHT22;6448;48.916;8.990;2023-05-27T02:38:55;20.60;41.70
12769;DHT22;6448;48.916;8.990;2023-05-27T02:39:57;20.50;41.80
12769;DHT22;6448;48.916;8.990;2023-05-27T02:40:58;20.50;41.80
12769;DHT22;6448;48.916;8.990;2023-05-27T02:41:59;20.50;41.80
12769;DHT22;6448;48.916;8.990;2023-05-27T02:43:01;20.50;41.90
12769;DHT22;6448;48.916;8.990;2023-05-27T02:44:02;20.50;42.00
12769;DHT22;6448;48.916;8.990;2023-05-27T02:45:05;20.50;42.00
12769;DHT22;6448;48.916;8.990;2023-05-27T02:46:06;20.50;42.00
12769;DHT22;6448;48.916;8.990;2023-05-27T02:47:08;20.50;42.00
12769;DHT22;6448;48.916;8.990;2023-05-27T02:48:09;20.40;42.00
12769;DHT22;6448;48.916;8.990;2023-05-27T02:49:13;20.40;42.00
12769;DHT22;6448;48.916;8.990;2023-05-27T02:50:13;20.40;42.00
12769;DHT22;6448;48.916;8.990;2023-05-27T02:51:15;20.40;42.00
12769;DHT22;6448;48.916;8.990;2023-05-27T02:52:16;20.50;42.10
12769;DHT22;6448;48.916;8.990;2023-05-27T02:53:18;20.40;42.00
12769;DHT22;6448;48.916;8.990;2023-05-27T02:54:19;20.40;42.10
12769;DHT22;6448;48.916;8.990;2023-05-27T02:55:22;20.40;42.10
12769;DHT22;6448;48.916;8.990;2023-05-27T02:56:23;20.30;42.10
12769;DHT22;6448;48.916;8.990;2023-05-27T02:57:26;20.30;42.10
12769;DHT22;6448;48.916;8.990;2023-05-27T02:58:27;20.30;42.10
12769;DHT22;6448;48.916;8.990;2023-05-27T02:59:29;20.30;42.10
12769;DHT22;6448;48.916;8.990;2023-05-27T03:00:29;20.30;42.10
12769;DHT22;6448;48.916;8.990;2023-05-27T03:01:31;20.30;42.10
12769;DHT22;6448;48.916;8.990;2023-05-27T03:02:32;20.20;42.00
12769;DHT22;6448;48.916;8.990;2023-05-27T03:03:34;20.30;42.10
12769;DHT22;6448;48.916;8.990;2023-05-27T03:04:35;20.30;42.10
12769;DHT22;6448;48.916;8.990;2023-05-27T03:05:37;20.30;42.10
12769;DHT22;6448;48.916;8.990;2023-05-27T03:06:38;20.20;42.00
12769;DHT22;6448;48.916;8.990;2023-05-27T03:07:40;20.30;42.10
12769;DHT22;6448;48.916;8.990;2023-05-27T03:08:41;20.20;42.00
12769;DHT22;6448;48.916;8.990;2023-05-27T03:09:44;20.20;42.10
12769;DHT22;6448;48.916;8.990;2023-05-27T03:10:46;20.20;42.10
12769;DHT22;6448;48.916;8.990;2023-05-27T03:11:47;20.10;42.10
12769;DHT22;6448;48.916;8.990;2023-05-27T03:12:48;20.20;42.20
12769;DHT22;6448;48.916;8.990;2023-05-27T03:13:50;20.10;42.20
12769;DHT22;6448;48.916;8.990;2023-05-27T03:14:51;20.10;42.30
12769;DHT22;6448;48.916;8.990;2023-05-27T03:15:52;20.20;42.40
12769;DHT22;6448;48.916;8.990;2023-05-27T03:16:54;20.10;42.40
12769;DHT22;6448;48.916;8.990;2023-05-27T03:17:56;20.10;42.40
12769;DHT22;6448;48.916;8.990;2023-05-27T03:18:57;20.10;42.50
12769;DHT22;6448;48.916;8.990;2023-05-27T03:19:59;20.10;42.50
12769;DHT22;6448;48.916;8.990;2023-05-27T03:21:00;20.10;42.50
12769;DHT22;6448;48.916;8.990;2023-05-27T03:22:02;20.10;42.50
12769;DHT22;6448;48.916;8.990;2023-05-27T03:23:03;20.10;42.50
12769;DHT22;6448;48.916;8.990;2023-05-27T03:24:05;20.10;42.50
12769;DHT22;6448;48.916;8.990;2023-05-27T03:25:07;20.10;42.60
12769;DHT22;6448;48.916;8.990;2023-05-27T03:26:11;20.10;42.60
12769;DHT22;6448;48.916;8.990;2023-05-27T03:27:13;20.00;42.60
12769;DHT22;6448;48.916;8.990;2023-05-27T03:28:17;20.00;42.60
12769;DHT22;6448;48.916;8.990;2023-05-27T03:29:19;20.00;42.60
12769;DHT22;6448;48.916;8.990;2023-05-27T03:30:20;20.00;42.60
12769;DHT22;6448;48.916;8.990;2023-05-27T03:31:25;20.00;42.70
12769;DHT22;6448;48.916;8.990;2023-05-27T03:32:32;20.00;42.60
12769;DHT22;6448;48.916;8.990;2023-05-27T03:33:34;20.00;42.70
12769;DHT22;6448;48.916;8.990;2023-05-27T03:34:35;20.00;42.70
12769;DHT22;6448;48.916;8.990;2023-05-27T03:35:37;20.00;42.70
12769;DHT22;6448;48.916;8.990;2023-05-27T03:36:38;20.00;42.70
12769;DHT22;6448;48.916;8.990;2023-05-27T03:37:40;20.00;42.70
12769;DHT22;6448;48.916;8.990;2023-05-27T03:38:42;20.00;42.70
12769;DHT22;6448;48.916;8.990;2023-05-27T03:39:44;19.90;42.60
12769;DHT22;6448;48.916;8.990;2023-05-27T03:40:45;19.90;42.70
12769;DHT22;6448;48.916;8.990;2023-05-27T03:41:48;19.90;42.70
12769;DHT22;6448;48.916;8.990;2023-05-27T03:42:49;19.90;42.70
12769;DHT22;6448;48.916;8.990;2023-05-27T03:43:54;19.90;42.70
12769;DHT22;6448;48.916;8.990;2023-05-27T03:44:56;19.90;42.80
12769;DHT22;6448;48.916;8.990;2023-05-27T03:46:00;19.90;42.80
12769;DHT22;6448;48.916;8.990;2023-05-27T03:47:03;20.00;42.90
12769;DHT22;6448;48.916;8.990;2023-05-27T03:48:06;19.90;42.90
12769;DHT22;6448;48.916;8.990;2023-05-27T03:49:06;19.90;42.90
12769;DHT22;6448;48.916;8.990;2023-05-27T03:50:10;19.90;43.00
12769;DHT22;6448;48.916;8.990;2023-05-27T03:51:10;19.90;43.00
12769;DHT22;6448;48.916;8.990;2023-05-27T03:52:12;19.90;43.00
12769;DHT22;6448;48.916;8.990;2023-05-27T03:53:13;19.90;43.00
12769;DHT22;6448;48.916;8.990;2023-05-27T03:54:17;19.90;43.00
12769;DHT22;6448;48.916;8.990;2023-05-27T03:55:20;19.90;43.00
12769;DHT22;6448;48.916;8.990;2023-05-27T03:56:22;19.90;43.00
12769;DHT22;6448;48.916;8.990;2023-05-27T03:57:24;19.90;43.00
12769;DHT22;6448;48.916;8.990;2023-05-27T03:58:26;19.90;43.10
12769;DHT22;6448;48.916;8.990;2023-05-27T03:59:26;19.80;43.00
12769;DHT22;6448;48.916;8.990;2023-05-27T04:00:28;19.90;43.10
12769;DHT22;6448;48.916;8.990;2023-05-27T04:01:31;19.80;43.10
12769;DHT22;6448;48.916;8.990;2023-05-27T04:02:32;19.80;43.20
12769;DHT22;6448;48.916;8.990;2023-05-27T04:03:33;19.80;43.20
12769;DHT22;6448;48.916;8.990;2023-05-27T04:04:35;19.80;43.20
12769;DHT22;6448;48.916;8.990;2023-05-27T04:05:36;19.80;43.30
12769;DHT22;6448;48.916;8.990;2023-05-27T04:06:39;19.80;43.30
12769;DHT22;6448;48.916;8.990;2023-05-27T04:07:42;19.80;43.30
12769;DHT22;6448;48.916;8.990;2023-05-27T04:08:44;19.80;43.30
12769;DHT22;6448;48.916;8.990;2023-05-27T04:09:45;19.80;43.40
12769;DHT22;6448;48.916;8.990;2023-05-27T04:10:46;19.80;43.30
12769;DHT22;6448;48.916;8.990;2023-05-27T04:11:47;19.80;43.30
12769;DHT22;6448;48.916;8.990;2023-05-27T04:12:50;19.80;43.40
12769;DHT22;6448;48.916;8.990;2023-05-27T04:13:51;19.70;43.40
12769;DHT22;6448;48.916;8.990;2023-05-27T04:14:53;19.80;43.50
12769;DHT22;6448;48.916;8.990;2023-05-27T04:15:53;19.80;43.50
12769;DHT22;6448;48.916;8.990;2023-05-27T04:16:57;19.70;43.50
12769;DHT22;6448;48.916;8.990;2023-05-27T04:17:58;19.70;43.50
12769;DHT22;6448;48.916;8.990;2023-05-27T04:19:01;19.70;43.60
12769;DHT22;6448;48.916;8.990;2023-05-27T04:20:03;19.70;43.60
12769;DHT22;6448;48.916;8.990;2023-05-27T04:21:13;19.70;43.60
12769;DHT22;6448;48.916;8.990;2023-05-27T04:22:17;19.70;43.60
12769;DHT22;6448;48.916;8.990;2023-05-27T04:23:19;19.70;43.70
12769;DHT22;6448;48.916;8.990;2023-05-27T04:24:20;19.70;43.70
12769;DHT22;6448;48.916;8.990;2023-05-27T04:25:22;19.70;43.70
12769;DHT22;6448;48.916;8.990;2023-05-27T04:26:36;19.70;43.80
12769;DHT22;6448;48.916;8.990;2023-05-27T04:27:38;19.70;43.90
12769;DHT22;6448;48.916;8.990;2023-05-27T04:28:40;19.70;43.80
12769;DHT22;6448;48.916;8.990;2023-05-27T04:29:46;19.70;43.80
12769;DHT22;6448;48.916;8.990;2023-05-27T04:30:49;19.70;43.90
12769;DHT22;6448;48.916;8.990;2023-05-27T04:32:05;19.70;43.90
12769;DHT22;6448;48.916;8.990;2023-05-27T04:33:07;19.70;44.00
12769;DHT22;6448;48.916;8.990;2023-05-27T04:34:09;19.70;44.00
12769;DHT22;6448;48.916;8.990;2023-05-27T04:35:11;19.70;44.00
12769;DHT22;6448;48.916;8.990;2023-05-27T04:36:13;19.70;44.00
12769;DHT22;6448;48.916;8.990;2023-05-27T04:37:34;19.70;44.00
12769;DHT22;6448;48.916;8.990;2023-05-27T04:38:37;19.70;44.70
12769;DHT22;6448;48.916;8.990;2023-05-27T04:39:40;19.70;44.10
12769;DHT22;6448;48.916;8.990;2023-05-27T04:40:46;19.70;44.00
12769;DHT22;6448;48.916;8.990;2023-05-27T04:41:59;19.70;44.10
12769;DHT22;6448;48.916;8.990;2023-05-27T04:43:05;19.70;44.10
12769;DHT22;6448;48.916;8.990;2023-05-27T04:44:08;19.70;44.10
12769;DHT22;6448;48.916;8.990;2023-05-27T04:45:14;19.70;44.10
12769;DHT22;6448;48.916;8.990;2023-05-27T04:46:15;19.70;44.10
12769;DHT22;6448;48.916;8.990;2023-05-27T04:47:17;19.70;44.20
12769;DHT22;6448;48.916;8.990;2023-05-27T04:48:18;19.70;44.20
12769;DHT22;6448;48.916;8.990;2023-05-27T04:49:20;19.70;44.30
12769;DHT22;6448;48.916;8.990;2023-05-27T04:50:22;19.70;44.20
12769;DHT22;6448;48.916;8.990;2023-05-27T04:51:25;19.70;44.20
12769;DHT22;6448;48.916;8.990;2023-05-27T04:52:26;19.70;44.30
12769;DHT22;6448;48.916;8.990;2023-05-27T04:53:28;19.70;44.30
12769;DHT22;6448;48.916;8.990;2023-05-27T04:54:31;19.70;44.20
12769;DHT22;6448;48.916;8.990;2023-05-27T04:55:35;19.70;44.30
12769;DHT22;6448;48.916;8.990;2023-05-27T04:56:36;19.70;44.30
12769;DHT22;6448;48.916;8.990;2023-05-27T04:57:38;19.70;44.30
12769;DHT22;6448;48.916;8.990;2023-05-27T04:58:41;19.70;44.30
12769;DHT22;6448;48.916;8.990;2023-05-27T04:59:48;19.70;44.30
12769;DHT22;6448;48.916;8.990;2023-05-27T05:00:59;19.70;44.30
12769;DHT22;6448;48.916;8.990;2023-05-27T05:02:01;19.70;44.30
12769;DHT22;6448;48.916;8.990;2023-05-27T05:03:18;19.70;44.30
12769;DHT22;6448;48.916;8.990;2023-05-27T05:04:22;19.70;44.30
12769;DHT22;6448;48.916;8.990;2023-05-27T05:05:29;19.70;44.30
12769;DHT22;6448;48.916;8.990;2023-05-27T05:06:31;19.70;44.40
12769;DHT22;6448;48.916;8.990;2023-05-27T05:07:33;19.70;44.40
12769;DHT22;6448;48.916;8.990;2023-05-27T05:08:36;19.70;44.40
12769;DHT22;6448;48.916;8.990;2023-05-27T05:09:37;19.70;44.30
12769;DHT22;6448;48.916;8.990;2023-05-27T05:10:48;19.70;44.30
12769;DHT22;6448;48.916;8.990;2023-05-27T05:11:54;19.70;44.40
12769;DHT22;6448;48.916;8.990;2023-05-27T05:12:54;19.70;44.40
12769;DHT22;6448;48.916;8.990;2023-05-27T05:13:56;19.70;44.40
12769;DHT22;6448;48.916;8.990;2023-05-27T05:15:00;19.70;44.20
12769;DHT22;6448;48.916;8.990;2023-05-27T05:16:02;19.70;44.20
12769;DHT22;6448;48.916;8.990;2023-05-27T05:17:04;19.70;44.20
12769;DHT22;6448;48.916;8.990;2023-05-27T05:18:05;19.70;44.20
12769;DHT22;6448;48.916;8.990;2023-05-27T05:19:06;19.70;44.20
12769;DHT22;6448;48.916;8.990;2023-05-27T05:20:12;19.70;44.20
12769;DHT22;6448;48.916;8.990;2023-05-27T05:21:14;19.70;44.30
12769;DHT22;6448;48.916;8.990;2023-05-27T05:22:15;19.80;44.30
12769;DHT22;6448;48.916;8.990;2023-05-27T05:23:20;19.70;44.30
12769;DHT22;6448;48.916;8.990;2023-05-27T05:24:22;19.70;44.30
12769;DHT22;6448;48.916;8.990;2023-05-27T05:25:23;19.80;44.40
12769;DHT22;6448;48.916;8.990;2023-05-27T05:26:27;19.80;44.40
12769;DHT22;6448;48.916;8.990;2023-05-27T05:27:29;19.80;44.30
12769;DHT22;6448;48.916;8.990;2023-05-27T05:28:32;19.80;44.40
12769;DHT22;6448;48.916;8.990;2023-05-27T05:29:35;19.80;44.40
12769;DHT22;6448;48.916;8.990;2023-05-27T05:30:38;19.70;44.30
12769;DHT22;6448;48.916;8.990;2023-05-27T05:31:41;19.70;44.40
12769;DHT22;6448;48.916;8.990;2023-05-27T05:32:44;19.80;44.40
12769;DHT22;6448;48.916;8.990;2023-05-27T05:33:46;19.70;44.30
12769;DHT22;6448;48.916;8.990;2023-05-27T05:34:48;19.80;44.40
12769;DHT22;6448;48.916;8.990;2023-05-27T05:35:51;19.80;44.40
12769;DHT22;6448;48.916;8.990;2023-05-27T05:36:58;19.80;44.40
12769;DHT22;6448;48.916;8.990;2023-05-27T05:37:59;19.80;44.40
12769;DHT22;6448;48.916;8.990;2023-05-27T05:39:01;19.80;44.40
12769;DHT22;6448;48.916;8.990;2023-05-27T05:40:02;19.80;44.40
12769;DHT22;6448;48.916;8.990;2023-05-27T05:41:08;19.80;44.40
12769;DHT22;6448;48.916;8.990;2023-05-27T05:42:10;19.80;45.00
12769;DHT22;6448;48.916;8.990;2023-05-27T05:43:12;19.80;44.40
12769;DHT22;6448;48.916;8.990;2023-05-27T05:44:13;19.80;44.40
12769;DHT22;6448;48.916;8.990;2023-05-27T05:45:14;19.80;44.50
12769;DHT22;6448;48.916;8.990;2023-05-27T05:46:19;19.80;44.50
12769;DHT22;6448;48.916;8.990;2023-05-27T05:47:21;19.80;44.50
12769;DHT22;6448;48.916;8.990;2023-05-27T05:48:31;19.90;44.50
12769;DHT22;6448;48.916;8.990;2023-05-27T05:49:34;19.80;44.40
12769;DHT22;6448;48.916;8.990;2023-05-27T05:50:34;19.90;44.50
12769;DHT22;6448;48.916;8.990;2023-05-27T05:51:36;19.80;44.40
12769;DHT22;6448;48.916;8.990;2023-05-27T05:52:37;19.80;44.30
12769;DHT22;6448;48.916;8.990;2023-05-27T05:53:39;19.80;44.20
12769;DHT22;6448;48.916;8.990;2023-05-27T05:54:40;19.90;44.10
12769;DHT22;6448;48.916;8.990;2023-05-27T05:55:42;19.80;44.00
12769;DHT22;6448;48.916;8.990;2023-05-27T05:56:42;19.90;44.10
12769;DHT22;6448;48.916;8.990;2023-05-27T05:57:44;19.80;44.00
12769;DHT22;6448;48.916;8.990;2023-05-27T05:58:45;19.70;44.00
12769;DHT22;6448;48.916;8.990;2023-05-27T05:59:48;19.80;44.10
12769;DHT22;6448;48.916;8.990;2023-05-27T06:00:50;19.80;44.00
12769;DHT22;6448;48.916;8.990;2023-05-27T06:02:15;19.80;44.10
12769;DHT22;6448;48.916;8.990;2023-05-27T06:03:17;19.80;44.10
12769;DHT22;6448;48.916;8.990;2023-05-27T06:04:22;19.80;44.10
12769;DHT22;6448;48.916;8.990;2023-05-27T06:05:23;19.80;44.00
12769;DHT22;6448;48.916;8.990;2023-05-27T06:06:26;19.80;44.00
12769;DHT22;6448;48.916;8.990;2023-05-27T06:07:53;19.80;44.00
12769;DHT22;6448;48.916;8.990;2023-05-27T06:08:55;19.80;44.10
12769;DHT22;6448;48.916;8.990;2023-05-27T06:09:56;19.90;44.10
12769;DHT22;6448;48.916;8.990;2023-05-27T06:11:07;19.90;44.20
12769;DHT22;6448;48.916;8.990;2023-05-27T06:12:09;19.80;44.20
12769;DHT22;6448;48.916;8.990;2023-05-27T06:13:17;19.90;44.30
12769;DHT22;6448;48.916;8.990;2023-05-27T06:14:20;19.90;44.30
12769;DHT22;6448;48.916;8.990;2023-05-27T06:15:23;19.90;44.30
12769;DHT22;6448;48.916;8.990;2023-05-27T06:16:24;19.90;44.30
12769;DHT22;6448;48.916;8.990;2023-05-27T06:17:27;19.90;44.30
12769;DHT22;6448;48.916;8.990;2023-05-27T06:18:28;19.90;44.30
12769;DHT22;6448;48.916;8.990;2023-05-27T06:19:30;19.90;44.30
12769;DHT22;6448;48.916;8.990;2023-05-27T06:20:30;19.90;44.30
12769;DHT22;6448;48.916;8.990;2023-05-27T06:21:32;19.90;44.30
12769;DHT22;6448;48.916;8.990;2023-05-27T06:22:52;19.90;44.40
12769;DHT22;6448;48.916;8.990;2023-05-27T06:24:26;19.90;44.30
12769;DHT22;6448;48.916;8.990;2023-05-27T06:25:38;19.90;44.40
12769;DHT22;6448;48.916;8.990;2023-05-27T06:26:41;20.00;44.40
12769;DHT22;6448;48.916;8.990;2023-05-27T06:27:43;20.00;44.40
12769;DHT22;6448;48.916;8.990;2023-05-27T06:28:44;20.00;44.30
12769;DHT22;6448;48.916;8.990;2023-05-27T06:29:47;20.00;44.20
12769;DHT22;6448;48.916;8.990;2023-05-27T06:30:53;20.00;44.10
12769;DHT22;6448;48.916;8.990;2023-05-27T06:31:56;20.00;44.00
12769;DHT22;6448;48.916;8.990;2023-05-27T06:32:59;20.00;43.90
12769;DHT22;6448;48.916;8.990;2023-05-27T06:34:03;20.00;44.00
12769;DHT22;6448;48.916;8.990;2023-05-27T06:35:06;20.00;43.90
12769;DHT22;6448;48.916;8.990;2023-05-27T06:36:09;20.00;43.90
12769;DHT22;6448;48.916;8.990;2023-05-27T06:37:10;20.00;43.90
12769;DHT22;6448;48.916;8.990;2023-05-27T06:38:12;20.00;43.90
12769;DHT22;6448;48.916;8.990;2023-05-27T06:39:13;20.00;43.90
12769;DHT22;6448;48.916;8.990;2023-05-27T06:40:15;20.00;44.00
12769;DHT22;6448;48.916;8.990;2023-05-27T06:41:16;20.00;44.00
12769;DHT22;6448;48.916;8.990;2023-05-27T06:42:30;20.10;44.00
12769;DHT22;6448;48.916;8.990;2023-05-27T06:43:46;20.10;44.00